createdAt,value
2023-01-19T00:00:32.049Z,10.90
2023-01-19T00:02:33.677Z,10.40
2023-01-19T00:04:35.537Z,11.88
2023-01-19T00:06:37.188Z,11.40
2023-01-19T00:08:38.983Z,11.88
2023-01-19T00:10:41.111Z,12.00
2023-01-19T00:12:42.834Z,11.65
2023-01-19T00:14:45.869Z,11.15
2023-01-19T00:16:47.656Z,11.68
2023-01-19T00:18:50.734Z,11.15
2023-01-19T00:20:52.317Z,12.35
2023-01-19T00:22:53.888Z,11.85
2023-01-19T00:24:55.485Z,11.80
2023-01-19T00:26:57.074Z,12.73
2023-01-19T00:28:58.645Z,11.93
2023-01-19T00:31:01.729Z,11.82
2023-01-19T00:33:03.706Z,12.82
2023-01-19T00:35:06.035Z,10.88
2023-01-19T00:37:07.652Z,11.88
2023-01-19T00:39:09.200Z,12.57
2023-01-19T00:41:10.839Z,11.82
2023-01-19T00:43:12.387Z,12.57
2023-01-19T00:45:15.925Z,12.45
2023-01-19T00:47:18.838Z,11.77
2023-01-19T00:49:20.401Z,11.75
2023-01-19T00:51:21.953Z,12.00
2023-01-19T00:53:24.091Z,13.18
2023-01-19T00:55:25.629Z,12.80
2023-01-19T00:57:27.261Z,13.30
2023-01-19T00:59:29.547Z,12.90
2023-01-19T01:01:46.227Z,12.57
2023-01-19T01:03:49.676Z,12.35
2023-01-19T01:05:51.249Z,12.10
2023-01-19T01:07:52.872Z,12.80
2023-01-19T01:09:54.565Z,12.50
2023-01-19T01:11:56.580Z,13.75
2023-01-19T01:13:58.156Z,13.10
2023-01-19T01:16:00.881Z,13.50
2023-01-19T01:18:02.711Z,12.60
2023-01-19T01:20:06.325Z,13.48
2023-01-19T01:22:08.474Z,14.07
2023-01-19T01:24:10.576Z,13.60
2023-01-19T01:26:12.105Z,13.65
2023-01-19T01:28:13.651Z,14.55
2023-01-19T01:30:15.604Z,14.68
2023-01-19T01:32:17.217Z,14.63
2023-01-19T01:34:19.000Z,13.60
2023-01-19T01:36:21.956Z,12.50
2023-01-19T01:38:23.535Z,14.60
2023-01-19T01:40:25.118Z,13.40
2023-01-19T01:42:28.456Z,13.25
2023-01-19T01:44:46.503Z,14.82
2023-01-19T01:46:48.170Z,14.32
2023-01-19T01:48:55.765Z,15.48
2023-01-19T01:51:00.785Z,14.98
2023-01-19T01:53:08.894Z,15.02
2023-01-19T01:55:12.321Z,15.43
2023-01-19T01:57:14.426Z,16.25
2023-01-19T01:59:19.517Z,14.45
2023-01-19T02:01:23.046Z,16.48
2023-01-19T02:03:26.782Z,14.80
2023-01-19T02:05:33.221Z,14.65
2023-01-19T02:07:41.821Z,16.80
2023-01-19T02:09:44.744Z,14.85
2023-01-19T02:11:47.387Z,14.43
2023-01-19T02:13:49.798Z,16.08
2023-01-19T02:15:53.032Z,16.20
2023-01-19T02:17:54.691Z,15.30
2023-01-19T02:19:58.669Z,15.93
2023-01-19T02:22:05.934Z,16.30
2023-01-19T02:24:09.569Z,14.40
2023-01-19T02:26:15.259Z,14.93
2023-01-19T02:28:17.239Z,14.90
2023-01-19T02:30:19.243Z,15.00
2023-01-19T02:32:20.900Z,14.95
2023-01-19T02:34:23.007Z,15.20
2023-01-19T02:36:28.456Z,15.77
2023-01-19T02:38:31.059Z,16.15
2023-01-19T02:40:34.568Z,14.07
2023-01-19T02:42:39.369Z,14.32
2023-01-19T02:44:47.387Z,14.20
2023-01-19T02:46:49.360Z,15.20
2023-01-19T02:48:50.987Z,14.75
2023-01-19T02:50:54.699Z,16.75
2023-01-19T02:53:00.991Z,15.70
2023-01-19T02:55:14.395Z,15.00
2023-01-19T02:57:44.433Z,14.77
2023-01-19T02:59:58.971Z,15.32
2023-01-19T03:02:14.695Z,15.35
2023-01-19T03:04:27.853Z,14.07
2023-01-19T03:06:42.496Z,13.80
2023-01-19T03:08:52.999Z,15.57
2023-01-19T03:11:01.602Z,15.20
2023-01-19T03:13:12.196Z,14.63
2023-01-19T03:15:18.667Z,15.50
2023-01-19T03:17:22.293Z,15.50
2023-01-19T03:19:26.906Z,14.55
2023-01-19T03:21:30.560Z,15.02
2023-01-19T03:23:35.232Z,14.27
2023-01-19T03:25:42.367Z,15.60
2023-01-19T03:27:47.127Z,14.63
2023-01-19T03:29:53.150Z,14.82
2023-01-19T03:31:57.467Z,13.90
2023-01-19T03:34:05.658Z,15.10
2023-01-19T03:36:11.076Z,14.25
2023-01-19T03:38:15.762Z,14.43
2023-01-19T03:40:17.749Z,14.77
2023-01-19T03:42:20.248Z,15.88
2023-01-19T03:44:23.494Z,14.43
2023-01-19T03:46:26.931Z,15.25
2023-01-19T03:48:28.818Z,14.80
2023-01-19T03:50:31.064Z,14.38
2023-01-19T03:52:32.918Z,14.15
2023-01-19T03:54:34.652Z,14.73
2023-01-19T03:56:36.368Z,14.57
2023-01-19T03:58:37.940Z,15.00
2023-01-19T04:00:39.919Z,13.98
2023-01-19T04:02:43.133Z,14.65
2023-01-19T04:04:44.957Z,14.68
2023-01-19T04:06:46.480Z,13.95
2023-01-19T04:08:49.363Z,14.68
2023-01-19T04:10:50.936Z,14.77
2023-01-19T04:12:57.548Z,14.95
2023-01-19T04:14:59.311Z,15.43
2023-01-19T04:17:00.963Z,13.68
2023-01-19T04:19:03.893Z,14.30
2023-01-19T04:21:07.649Z,15.25
2023-01-19T04:23:09.179Z,15.57
2023-01-19T04:25:10.919Z,15.85
2023-01-19T04:27:12.519Z,14.43
2023-01-19T04:29:14.240Z,16.08
2023-01-19T04:31:15.820Z,15.15
2023-01-19T04:33:17.458Z,14.70
2023-01-19T04:35:20.409Z,15.35
2023-01-19T04:37:22.267Z,14.63
2023-01-19T04:39:24.071Z,14.98
2023-01-19T04:41:25.779Z,14.27
2023-01-19T04:43:27.464Z,15.13
2023-01-19T04:45:29.149Z,14.88
2023-01-19T04:47:30.828Z,16.42
2023-01-19T04:49:32.393Z,14.80
2023-01-19T04:51:35.837Z,14.50
2023-01-19T04:53:37.428Z,16.17
2023-01-19T04:55:39.441Z,15.65
2023-01-19T04:57:41.214Z,14.93
2023-01-19T04:59:42.718Z,15.05
2023-01-19T05:01:44.236Z,14.38
2023-01-19T05:03:46.063Z,16.13
2023-01-19T05:05:47.615Z,14.45
2023-01-19T05:07:50.571Z,14.82
2023-01-19T05:09:52.421Z,15.05
2023-01-19T05:11:54.048Z,15.57
2023-01-19T05:13:55.691Z,14.80
2023-01-19T05:15:57.243Z,15.93
2023-01-19T05:17:58.835Z,16.38
2023-01-19T05:20:00.400Z,15.20
2023-01-19T05:22:02.418Z,15.75
2023-01-19T05:24:06.222Z,16.10
2023-01-19T05:26:09.556Z,15.45
2023-01-19T05:28:11.846Z,16.38
2023-01-19T05:30:13.826Z,15.32
2023-01-19T05:32:15.440Z,14.93
2023-01-19T05:34:17.420Z,15.10
2023-01-19T05:36:18.993Z,15.32
2023-01-19T05:38:34.317Z,15.30
2023-01-19T05:40:38.053Z,16.10
2023-01-19T05:42:39.691Z,17.50
2023-01-19T05:44:41.254Z,15.50
2023-01-19T05:46:42.947Z,15.70
2023-01-19T05:48:44.628Z,14.80
2023-01-19T05:50:46.231Z,15.77
2023-01-19T05:52:47.899Z,16.70
2023-01-19T05:54:49.441Z,18.55
2023-01-19T05:56:52.335Z,16.55
2023-01-19T05:58:53.860Z,16.08
2023-01-19T06:00:55.500Z,16.35
2023-01-19T06:02:57.147Z,17.05
2023-01-19T06:05:01.102Z,17.15
2023-01-19T06:07:02.686Z,15.27
2023-01-19T06:09:04.893Z,15.25
2023-01-19T06:11:06.911Z,16.20
2023-01-19T06:13:10.118Z,16.10
2023-01-19T06:15:11.945Z,15.48
2023-01-19T06:17:13.530Z,15.23
2023-01-19T06:19:15.061Z,16.33
2023-01-19T06:21:16.650Z,14.85
2023-01-19T06:23:18.512Z,16.15
2023-01-19T06:25:20.110Z,17.23
2023-01-19T06:27:21.728Z,17.55
2023-01-19T06:29:25.001Z,16.60
2023-01-19T06:31:26.623Z,16.60
2023-01-19T06:33:28.550Z,14.70
2023-01-19T06:35:30.119Z,16.25
2023-01-19T06:37:31.715Z,14.55
2023-01-19T06:39:33.194Z,15.38
2023-01-19T06:41:35.727Z,17.10
2023-01-19T06:43:37.579Z,14.98
2023-01-19T06:45:40.575Z,15.32
2023-01-19T06:47:42.175Z,15.35
2023-01-19T06:49:43.898Z,17.63
2023-01-19T06:51:45.480Z,16.52
2023-01-19T06:53:47.218Z,16.50
2023-01-19T06:55:48.785Z,18.05
2023-01-19T06:57:56.171Z,16.25
2023-01-19T06:59:57.715Z,17.60
2023-01-19T07:02:00.786Z,17.77
2023-01-19T07:04:22.164Z,16.00
2023-01-19T07:06:23.798Z,16.38
2023-01-19T07:08:25.503Z,16.30
2023-01-19T07:10:27.211Z,16.77
2023-01-19T07:12:48.874Z,18.92
2023-01-19T07:14:50.593Z,18.13
2023-01-19T07:16:52.137Z,16.13
2023-01-19T07:18:55.141Z,17.00
2023-01-19T07:20:57.437Z,17.35
2023-01-19T07:22:59.255Z,18.08
2023-01-19T07:25:01.101Z,17.73
2023-01-19T07:27:02.695Z,17.65
2023-01-19T07:29:04.290Z,18.25
2023-01-19T07:31:06.198Z,17.33
2023-01-19T07:33:07.879Z,16.50
2023-01-19T07:35:10.968Z,17.15
2023-01-19T07:37:12.600Z,17.10
2023-01-19T07:39:20.219Z,16.58
2023-01-19T07:41:21.934Z,15.80
2023-01-19T07:43:23.495Z,16.10
2023-01-19T07:45:27.152Z,15.00
2023-01-19T07:47:29.411Z,15.90
2023-01-19T07:49:30.967Z,16.05
2023-01-19T07:51:33.894Z,15.75
2023-01-19T07:53:35.423Z,16.08
2023-01-19T07:55:37.294Z,14.88
2023-01-19T07:57:38.858Z,15.85
2023-01-19T07:59:40.520Z,18.20
2023-01-19T08:01:42.190Z,17.80
2023-01-19T08:03:44.136Z,15.35
2023-01-19T08:05:50.167Z,17.95
2023-01-19T08:07:54.153Z,16.83
2023-01-19T08:09:55.832Z,16.77
2023-01-19T08:11:57.384Z,16.13
2023-01-19T08:13:59.165Z,17.48
2023-01-19T08:16:00.733Z,16.42
2023-01-19T08:18:03.838Z,16.88
2023-01-19T08:20:06.841Z,16.77
2023-01-19T08:22:08.404Z,16.27
2023-01-19T08:24:17.935Z,17.67
2023-01-19T08:26:20.250Z,16.73
2023-01-19T08:28:22.044Z,15.80
2023-01-19T08:30:23.864Z,16.02
2023-01-19T08:32:25.479Z,16.00
2023-01-19T08:34:27.298Z,15.73
2023-01-19T08:36:28.855Z,16.50
2023-01-19T08:38:30.426Z,15.40
2023-01-19T08:40:35.905Z,15.65
2023-01-19T08:42:37.462Z,16.23
2023-01-19T08:44:46.691Z,16.05
2023-01-19T08:46:54.758Z,14.90
2023-01-19T08:48:56.396Z,15.05
2023-01-19T08:50:58.558Z,14.77
2023-01-19T08:53:02.991Z,15.60
2023-01-19T08:55:06.237Z,16.48
2023-01-19T08:57:09.152Z,17.50
2023-01-19T08:59:12.924Z,17.20
2023-01-19T09:01:14.931Z,16.45
2023-01-19T09:03:16.643Z,15.73
2023-01-19T09:05:18.615Z,17.60
2023-01-19T09:07:20.175Z,16.20
2023-01-19T09:09:21.713Z,17.42
2023-01-19T09:11:23.320Z,15.18
2023-01-19T09:13:26.390Z,15.60
2023-01-19T09:15:30.738Z,16.55
2023-01-19T09:17:32.351Z,15.27
2023-01-19T09:19:35.180Z,15.90
2023-01-19T09:21:36.843Z,15.05
2023-01-19T09:23:38.437Z,15.43
2023-01-19T09:25:41.236Z,14.60
2023-01-19T09:27:42.794Z,15.10
2023-01-19T09:29:45.922Z,16.05
2023-01-19T09:31:47.657Z,15.00
2023-01-19T09:33:49.246Z,14.48
2023-01-19T09:35:51.188Z,14.90
2023-01-19T09:37:52.743Z,15.73
2023-01-19T09:39:54.348Z,13.57
2023-01-19T09:42:06.364Z,14.70
2023-01-19T09:44:16.924Z,14.48
2023-01-19T09:46:27.259Z,15.15
2023-01-19T09:48:42.174Z,14.02
2023-01-19T09:50:44.146Z,14.43
2023-01-19T09:52:54.672Z,13.60
2023-01-19T09:54:57.766Z,15.07
2023-01-19T09:56:59.358Z,15.25
2023-01-19T09:59:03.028Z,13.60
2023-01-19T10:01:16.950Z,13.60
2023-01-19T10:03:20.902Z,15.43
2023-01-19T10:05:29.813Z,15.30
2023-01-19T10:07:51.078Z,13.52
2023-01-19T10:10:07.061Z,13.75
2023-01-19T10:12:19.823Z,13.98
2023-01-19T10:14:30.765Z,13.93
2023-01-19T10:16:42.952Z,13.70
2023-01-19T10:18:47.102Z,15.05
2023-01-19T10:20:51.071Z,16.20
2023-01-19T10:22:52.747Z,15.70
2023-01-19T10:24:56.828Z,14.35
2023-01-19T10:26:58.558Z,14.20
2023-01-19T10:29:05.293Z,15.60
2023-01-19T10:31:07.310Z,12.93
2023-01-19T10:33:12.470Z,15.02
2023-01-19T10:35:17.088Z,15.30
2023-01-19T10:37:28.006Z,14.20
2023-01-19T10:39:29.731Z,14.10
2023-01-19T10:41:40.363Z,15.15
2023-01-19T10:43:44.167Z,14.25
2023-01-19T10:45:50.360Z,15.02
2023-01-19T10:47:53.612Z,16.05
2023-01-19T10:49:55.761Z,14.23
2023-01-19T10:51:59.990Z,15.75
2023-01-19T10:54:03.318Z,16.23
2023-01-19T10:56:16.538Z,15.40
2023-01-19T10:58:31.259Z,15.88
2023-01-19T11:00:36.165Z,14.15
2023-01-19T11:02:49.034Z,14.88
2023-01-19T11:04:51.897Z,15.07
2023-01-19T11:07:13.317Z,15.27
2023-01-19T11:09:19.808Z,15.30
2023-01-19T11:11:23.804Z,16.13
2023-01-19T11:13:25.303Z,17.63
2023-01-19T11:15:32.317Z,15.32
2023-01-19T11:17:34.009Z,17.70
2023-01-19T11:19:38.219Z,14.45
2023-01-19T11:21:39.911Z,13.85
2023-01-19T11:23:46.723Z,14.35
2023-01-19T11:25:50.228Z,17.45
2023-01-19T11:27:52.305Z,17.30
2023-01-19T11:30:02.396Z,15.80
2023-01-19T11:32:12.119Z,15.38
2023-01-19T11:34:27.322Z,14.15
2023-01-19T11:36:30.530Z,14.05
2023-01-19T11:38:32.717Z,15.15
2023-01-19T11:40:35.831Z,15.65
2023-01-19T11:42:37.617Z,14.57
2023-01-19T11:44:44.957Z,14.75
2023-01-19T11:46:51.122Z,14.52
2023-01-19T11:48:55.792Z,15.25
2023-01-19T11:51:01.311Z,14.27
2023-01-19T11:53:07.491Z,15.40
2023-01-19T11:55:17.431Z,14.25
2023-01-19T11:57:20.736Z,15.80
2023-01-19T11:59:22.763Z,15.00
2023-01-19T12:01:27.671Z,18.52
2023-01-19T12:03:32.917Z,14.13
2023-01-19T12:05:39.248Z,14.60
2023-01-19T12:07:43.993Z,14.52
2023-01-19T12:09:49.459Z,15.13
2023-01-19T12:11:57.365Z,15.77
2023-01-19T12:14:01.899Z,14.60
2023-01-19T12:16:08.258Z,15.52
2023-01-19T12:18:16.259Z,11.93
2023-01-19T12:20:27.820Z,14.85
2023-01-19T12:22:35.272Z,12.70
2023-01-19T12:24:44.767Z,14.48
2023-01-19T12:26:53.173Z,14.65
2023-01-19T12:28:58.437Z,14.48
2023-01-19T12:31:01.879Z,14.13
2023-01-19T12:33:37.277Z,14.30
2023-01-19T12:35:58.948Z,13.48
2023-01-19T12:38:00.704Z,13.25
2023-01-19T12:40:14.087Z,12.15
2023-01-19T12:42:17.574Z,14.98
2023-01-19T12:44:30.614Z,13.93
2023-01-19T12:46:33.779Z,13.90
2023-01-19T12:48:41.994Z,14.02
2023-01-19T12:50:46.318Z,13.30
2023-01-19T12:52:53.091Z,13.80
2023-01-19T12:55:01.574Z,13.75
2023-01-19T12:57:19.190Z,14.30
2023-01-19T12:59:25.220Z,14.63
2023-01-19T13:01:26.904Z,14.05
2023-01-19T13:03:58.246Z,12.80
2023-01-19T13:05:59.791Z,13.45
2023-01-19T13:08:21.598Z,13.48
2023-01-19T13:11:08.731Z,11.80
2023-01-19T13:13:17.568Z,12.88
2023-01-19T13:15:34.675Z,12.80
2023-01-19T13:17:48.519Z,12.63
2023-01-19T13:20:01.317Z,12.45
2023-01-19T13:23:02.013Z,13.60
2023-01-19T13:25:12.261Z,14.15
2023-01-19T13:27:14.070Z,12.52
2023-01-19T13:29:19.989Z,12.95
2023-01-19T13:31:23.081Z,14.82
2023-01-19T13:33:27.991Z,12.75
2023-01-19T13:35:29.529Z,12.40
2023-01-19T13:37:36.990Z,12.40
2023-01-19T13:39:42.139Z,12.40
2023-01-19T13:41:46.992Z,11.68
2023-01-19T13:43:51.903Z,12.23
2023-01-19T13:45:55.132Z,12.45
2023-01-19T13:47:59.549Z,10.68
2023-01-19T13:50:01.843Z,10.75
2023-01-19T13:52:11.924Z,10.63
2023-01-19T13:54:16.157Z,10.52
2023-01-19T13:56:19.831Z,10.75
2023-01-19T13:58:23.977Z,10.70
2023-01-19T14:00:28.189Z,10.55
2023-01-19T14:02:29.780Z,10.07
2023-01-19T14:04:33.135Z,10.15
2023-01-19T14:06:39.321Z,9.88
2023-01-19T14:08:41.136Z,10.25
2023-01-19T14:10:44.547Z,10.52
2023-01-19T14:12:58.921Z,9.20
2023-01-19T14:15:02.384Z,10.38
2023-01-19T14:17:04.303Z,9.45
2023-01-19T14:19:05.888Z,9.57
2023-01-19T14:21:09.566Z,9.65
2023-01-19T14:23:52.750Z,9.25
2023-01-19T14:25:54.369Z,8.93
2023-01-19T14:28:33.589Z,8.85
2023-01-19T14:30:36.488Z,9.60
2023-01-19T14:32:45.118Z,8.82
2023-01-19T14:34:48.475Z,10.80
2023-01-19T14:36:51.593Z,9.70
2023-01-19T14:38:54.701Z,8.68
2023-01-19T14:40:56.485Z,10.23
2023-01-19T14:43:00.207Z,10.52
2023-01-19T14:45:04.770Z,10.10
2023-01-19T14:47:25.074Z,9.43
2023-01-19T14:49:33.194Z,10.65
2023-01-19T14:51:34.927Z,9.38
2023-01-19T14:53:37.894Z,9.02
2023-01-19T14:55:46.145Z,9.45
2023-01-19T14:57:47.856Z,9.35
2023-01-19T14:59:49.540Z,8.60
2023-01-19T15:01:51.283Z,9.45
2023-01-19T15:03:54.434Z,8.73
2023-01-19T15:06:04.298Z,8.80
2023-01-19T15:08:07.268Z,8.85
2023-01-19T15:10:17.279Z,8.50
2023-01-19T15:12:19.112Z,8.25
2023-01-19T15:14:21.765Z,8.10
2023-01-19T15:16:24.244Z,8.77
2023-01-19T15:18:26.704Z,10.15
2023-01-19T15:20:29.765Z,8.30
2023-01-19T15:22:31.268Z,8.02
2023-01-19T15:24:33.287Z,7.32
2023-01-19T15:26:36.604Z,6.90
2023-01-19T15:28:38.175Z,8.65
2023-01-19T15:30:39.876Z,9.65
2023-01-19T15:32:42.191Z,8.43
2023-01-19T15:34:43.970Z,8.95
2023-01-19T15:36:46.962Z,8.00
2023-01-19T15:38:48.837Z,9.13
2023-01-19T15:40:51.657Z,9.10
2023-01-19T15:42:53.397Z,7.70
2023-01-19T15:44:55.142Z,8.75
2023-01-19T15:46:56.691Z,7.88
2023-01-19T15:48:58.388Z,8.20
2023-01-19T15:51:00.393Z,6.70
2023-01-19T15:53:03.828Z,8.77
2023-01-19T15:55:06.477Z,8.70
2023-01-19T15:57:08.647Z,7.32
2023-01-19T15:59:10.284Z,8.73
2023-01-19T16:01:13.271Z,8.15
2023-01-19T16:03:14.948Z,7.38
2023-01-19T16:05:16.651Z,6.90
2023-01-19T16:07:20.409Z,8.00
2023-01-19T16:09:23.575Z,8.07
2023-01-19T16:11:25.917Z,8.23
2023-01-19T16:13:27.457Z,7.03
2023-01-19T16:15:29.112Z,8.48
2023-01-19T16:17:31.198Z,8.15
2023-01-19T16:19:32.806Z,7.10
2023-01-19T16:21:34.373Z,7.32
2023-01-19T16:23:36.294Z,8.38
2023-01-19T16:25:39.268Z,8.13
2023-01-19T16:27:40.908Z,7.40
2023-01-19T16:29:57.597Z,7.35
2023-01-19T16:31:59.220Z,7.95
2023-01-19T16:34:00.775Z,8.35
2023-01-19T16:36:17.844Z,7.53
2023-01-19T16:38:19.557Z,7.90
2023-01-19T16:40:21.232Z,8.52
2023-01-19T16:42:24.545Z,7.90
2023-01-19T16:44:26.280Z,7.15
2023-01-19T16:46:30.184Z,8.05
2023-01-19T16:48:31.997Z,8.68
2023-01-19T16:50:33.663Z,7.07
2023-01-19T16:52:35.273Z,8.95
2023-01-19T16:54:39.240Z,9.35
2023-01-19T16:56:41.237Z,9.68
2023-01-19T16:58:44.530Z,9.90
2023-01-19T17:00:46.216Z,9.50
2023-01-19T17:02:48.254Z,9.73
2023-01-19T17:04:49.841Z,9.27
2023-01-19T17:06:51.530Z,9.73
2023-01-19T17:08:53.160Z,8.82
2023-01-19T17:10:54.746Z,9.05
2023-01-19T17:12:56.426Z,9.10
2023-01-19T17:14:59.389Z,12.48
2023-01-19T17:17:01.117Z,14.50
2023-01-19T17:19:04.751Z,13.60
2023-01-19T17:21:08.507Z,13.18
2023-01-19T17:23:10.064Z,13.07
2023-01-19T17:25:11.636Z,14.52
2023-01-19T17:27:13.295Z,14.82
2023-01-19T17:29:15.964Z,13.75
2023-01-19T17:31:20.879Z,12.52
2023-01-19T17:33:24.055Z,13.20
2023-01-19T17:35:25.734Z,12.20
2023-01-19T17:37:30.201Z,12.43
2023-01-19T17:39:31.843Z,13.05
2023-01-19T17:41:35.487Z,10.73
2023-01-19T17:43:37.090Z,12.65
2023-01-19T17:45:38.871Z,12.07
2023-01-19T17:47:41.833Z,11.82
2023-01-19T17:49:43.484Z,10.70
2023-01-19T17:51:45.456Z,11.00
2023-01-19T17:53:47.014Z,9.70
2023-01-19T17:55:48.609Z,10.80
2023-01-19T17:57:50.172Z,10.50
2023-01-19T17:59:51.824Z,12.27
2023-01-19T18:01:53.474Z,12.10
2023-01-19T18:03:59.484Z,11.10
2023-01-19T18:06:01.045Z,11.85
2023-01-19T18:08:02.843Z,12.10
2023-01-19T18:10:05.581Z,11.63
2023-01-19T18:12:07.466Z,10.23
2023-01-19T18:14:09.113Z,12.75
2023-01-19T18:16:12.787Z,11.95
2023-01-19T18:18:14.372Z,12.98
2023-01-19T18:20:17.589Z,12.20
2023-01-19T18:22:19.302Z,12.52
2023-01-19T18:24:23.284Z,12.68
2023-01-19T18:26:24.916Z,12.98
2023-01-19T18:28:27.383Z,11.32
2023-01-19T18:30:29.040Z,10.25
2023-01-19T18:32:33.047Z,10.48
2023-01-19T18:34:34.730Z,9.32
2023-01-19T18:36:39.630Z,11.70
2023-01-19T18:38:41.470Z,9.70
2023-01-19T18:40:43.215Z,10.65
2023-01-19T18:42:44.862Z,11.25
2023-01-19T18:44:46.486Z,11.20
2023-01-19T18:46:48.097Z,12.23
2023-01-19T18:48:52.682Z,10.95
2023-01-19T18:50:54.276Z,10.60
2023-01-19T18:52:57.355Z,19.33
2023-01-19T18:54:59.599Z,17.58
2023-01-19T18:57:01.189Z,17.88
2023-01-19T18:59:02.791Z,11.43
2023-01-19T19:01:16.346Z,15.93
2023-01-19T19:03:18.051Z,11.20
2023-01-19T19:05:19.632Z,10.00
2023-01-19T19:07:21.207Z,10.05
2023-01-19T19:09:24.194Z,10.70
2023-01-19T19:11:26.885Z,12.02
2023-01-19T19:13:28.528Z,9.68
2023-01-19T19:15:32.175Z,10.10
2023-01-19T19:17:35.249Z,12.02
2023-01-19T19:19:37.006Z,10.10
2023-01-19T19:21:38.634Z,10.65
2023-01-19T19:23:40.280Z,9.55
2023-01-19T19:25:43.190Z,10.90
2023-01-19T19:27:50.701Z,11.68
2023-01-19T19:29:52.389Z,11.10
2023-01-19T19:31:54.049Z,16.60
2023-01-19T19:33:56.967Z,11.35
2023-01-19T19:35:58.995Z,11.93
2023-01-19T19:38:00.663Z,8.38
2023-01-19T19:40:02.375Z,10.88
2023-01-19T19:42:06.707Z,10.57
2023-01-19T19:44:10.620Z,9.88
2023-01-19T19:46:15.193Z,10.98
2023-01-19T19:48:16.819Z,13.80
2023-01-19T19:50:19.033Z,17.05
2023-01-19T19:52:20.783Z,14.93
2023-01-19T19:54:22.379Z,13.63
2023-01-19T19:56:25.346Z,13.98
2023-01-19T19:58:28.911Z,13.55
2023-01-19T20:00:30.621Z,11.60
2023-01-19T20:02:32.448Z,10.93
2023-01-19T20:04:34.125Z,9.48
2023-01-19T20:06:39.102Z,10.85
2023-01-19T20:08:41.176Z,10.10
2023-01-19T20:10:42.849Z,10.25
2023-01-19T20:12:44.506Z,9.77
2023-01-19T20:14:47.480Z,9.95
2023-01-19T20:16:49.190Z,9.95
2023-01-19T20:18:52.968Z,10.68
2023-01-19T20:20:54.595Z,10.15
2023-01-19T20:22:58.014Z,10.75
2023-01-19T20:24:59.560Z,9.63
2023-01-19T20:27:01.164Z,10.00
2023-01-19T20:29:05.211Z,11.07
2023-01-19T20:31:13.368Z,10.00
2023-01-19T20:33:14.989Z,9.80
2023-01-19T20:35:17.202Z,10.13
2023-01-19T20:37:19.248Z,9.93
2023-01-19T20:39:23.232Z,11.52
2023-01-19T20:41:26.127Z,14.88
2023-01-19T20:43:28.759Z,13.20
2023-01-19T20:45:30.319Z,13.27
2023-01-19T20:47:33.332Z,10.63
2023-01-19T20:49:34.965Z,9.80
2023-01-19T20:51:36.501Z,9.57
2023-01-19T20:53:39.844Z,10.80
2023-01-19T20:55:41.493Z,9.82
2023-01-19T20:57:43.081Z,10.15
2023-01-19T20:59:47.532Z,9.77
2023-01-19T21:01:50.135Z,9.77
2023-01-19T21:03:53.630Z,10.30
2023-01-19T21:05:56.449Z,10.18
2023-01-19T21:07:59.590Z,11.05
2023-01-19T21:10:01.165Z,10.70
2023-01-19T21:12:03.076Z,10.88
2023-01-19T21:14:05.132Z,10.90
2023-01-19T21:16:08.055Z,10.23
2023-01-19T21:18:09.910Z,10.25
2023-01-19T21:20:13.189Z,10.98
2023-01-19T21:22:14.785Z,12.50
2023-01-19T21:24:16.350Z,11.07
2023-01-19T21:26:18.064Z,12.55
2023-01-19T21:28:20.247Z,11.18
2023-01-19T21:30:21.831Z,11.30
2023-01-19T21:32:23.832Z,11.40
2023-01-19T21:34:25.460Z,9.98
2023-01-19T21:36:28.586Z,10.98
2023-01-19T21:38:35.115Z,10.98
2023-01-19T21:40:36.832Z,11.05
2023-01-19T21:42:39.190Z,11.10
2023-01-19T21:44:40.768Z,10.30
2023-01-19T21:46:42.341Z,10.95
2023-01-19T21:48:44.060Z,10.57
2023-01-19T21:50:45.705Z,10.50
2023-01-19T21:52:48.643Z,10.80
2023-01-19T21:54:50.489Z,12.05
2023-01-19T21:56:52.324Z,11.63
2023-01-19T21:58:54.149Z,12.10
2023-01-19T22:00:59.612Z,11.10
2023-01-19T22:03:04.056Z,12.90
2023-01-19T22:05:07.037Z,13.75
2023-01-19T22:07:08.649Z,15.02
2023-01-19T22:09:11.603Z,13.57
2023-01-19T22:11:15.377Z,11.95
2023-01-19T22:13:17.040Z,11.35
2023-01-19T22:15:19.024Z,12.07
2023-01-19T22:17:20.907Z,9.82
2023-01-19T22:19:22.871Z,11.57
2023-01-19T22:21:25.596Z,11.48
2023-01-19T22:23:27.144Z,10.95
2023-01-19T22:25:32.641Z,12.40
2023-01-19T22:27:35.537Z,12.60
2023-01-19T22:29:37.075Z,11.65
2023-01-19T22:31:39.478Z,12.48
2023-01-19T22:33:41.733Z,12.38
2023-01-19T22:35:43.337Z,13.05
2023-01-19T22:37:49.472Z,12.32
2023-01-19T22:39:52.706Z,13.52
2023-01-19T22:41:55.628Z,14.38
2023-01-19T22:43:59.170Z,13.75
2023-01-19T22:46:00.743Z,13.23
2023-01-19T22:48:02.751Z,13.18
2023-01-19T22:50:04.956Z,12.45
2023-01-19T22:52:06.471Z,14.18
2023-01-19T22:54:08.426Z,14.15
2023-01-19T22:56:12.858Z,15.65
2023-01-19T22:58:15.802Z,13.75
2023-01-19T23:00:23.957Z,13.40
2023-01-19T23:02:25.551Z,12.77
2023-01-19T23:04:27.139Z,12.27
2023-01-19T23:06:30.360Z,14.35
2023-01-19T23:08:32.773Z,12.23
2023-01-19T23:10:37.670Z,12.65
2023-01-19T23:12:39.196Z,12.18
2023-01-19T23:14:42.403Z,13.23
2023-01-19T23:16:44.011Z,12.18
2023-01-19T23:18:46.577Z,11.85
2023-01-19T23:20:48.106Z,12.38
2023-01-19T23:22:49.806Z,12.85
2023-01-19T23:24:52.636Z,13.55
2023-01-19T23:26:54.145Z,12.35
2023-01-19T23:28:57.690Z,12.07
2023-01-19T23:31:01.225Z,12.48
2023-01-19T23:33:02.988Z,11.85
2023-01-19T23:35:04.952Z,13.73
2023-01-19T23:37:06.481Z,13.20
2023-01-19T23:39:12.487Z,13.50
2023-01-19T23:41:14.292Z,13.35
2023-01-19T23:43:15.824Z,12.98
2023-01-19T23:45:17.383Z,13.30
2023-01-19T23:47:20.433Z,13.18
2023-01-19T23:49:21.948Z,14.23
2023-01-19T23:51:27.171Z,13.13
2023-01-19T23:53:28.705Z,13.43
2023-01-19T23:55:30.249Z,13.57
2023-01-19T23:57:31.854Z,13.57
2023-01-19T23:59:33.526Z,15.32
